sensor_id;sensor_type;location;lat;lon;timestamp;temperature;humidity
35541;DHT22;21650;48.840;9.162;2023-05-10T00:00:12;14.10;99.90
35541;DHT22;21650;48.840;9.162;2023-05-10T00:02:38;13.90;99.90
35541;DHT22;21650;48.840;9.162;2023-05-10T00:05:04;13.90;99.90
35541;DHT22;21650;48.840;9.162;2023-05-10T00:07:30;13.90;99.90
35541;DHT22;21650;48.840;9.162;2023-05-10T00:09:55;13.80;99.90
35541;DHT22;21650;48.840;9.162;2023-05-10T00:12:21;13.70;99.90
35541;DHT22;21650;48.840;9.162;2023-05-10T00:14:46;13.70;99.90
35541;DHT22;21650;48.840;9.162;2023-05-10T00:17:12;13.70;99.90
35541;DHT22;21650;48.840;9.162;2023-05-10T00:19:37;13.60;99.90
35541;DHT22;21650;48.840;9.162;2023-05-10T00:22:03;13.60;99.90
35541;DHT22;21650;48.840;9.162;2023-05-10T00:24:28;13.50;99.90
35541;DHT22;21650;48.840;9.162;2023-05-10T00:26:54;13.40;99.90
35541;DHT22;21650;48.840;9.162;2023-05-10T00:29:20;13.40;99.90
35541;DHT22;21650;48.840;9.162;2023-05-10T00:31:45;13.50;99.90
35541;DHT22;21650;48.840;9.162;2023-05-10T00:34:10;13.40;99.90
35541;DHT22;21650;48.840;9.162;2023-05-10T00:36:36;13.30;99.90
35541;DHT22;21650;48.840;9.162;2023-05-10T00:39:02;13.30;99.90
35541;DHT22;21650;48.840;9.162;2023-05-10T00:41:29;13.30;99.90
35541;DHT22;21650;48.840;9.162;2023-05-10T00:43:57;13.20;99.90
35541;DHT22;21650;48.840;9.162;2023-05-10T00:46:22;13.20;99.90
35541;DHT22;21650;48.840;9.162;2023-05-10T00:48:48;13.20;99.90
35541;DHT22;21650;48.840;9.162;2023-05-10T00:51:14;13.20;99.90
35541;DHT22;21650;48.840;9.162;2023-05-10T00:53:40;13.20;99.90
35541;DHT22;21650;48.840;9.162;2023-05-10T00:56:06;13.20;99.90
35541;DHT22;21650;48.840;9.162;2023-05-10T00:58:31;13.20;99.90
35541;DHT22;21650;48.840;9.162;2023-05-10T01:00:57;13.10;99.90
35541;DHT22;21650;48.840;9.162;2023-05-10T01:03:24;13.10;99.90
35541;DHT22;21650;48.840;9.162;2023-05-10T01:05:49;13.00;99.90
35541;DHT22;21650;48.840;9.162;2023-05-10T01:08:15;13.00;99.90
35541;DHT22;21650;48.840;9.162;2023-05-10T01:10:41;13.00;99.90
35541;DHT22;21650;48.840;9.162;2023-05-10T01:13:07;13.00;99.90
35541;DHT22;21650;48.840;9.162;2023-05-10T01:15:36;13.00;99.90
35541;DHT22;21650;48.840;9.162;2023-05-10T01:18:03;13.00;99.90
35541;DHT22;21650;48.840;9.162;2023-05-10T01:20:35;12.90;99.90
35541;DHT22;21650;48.840;9.162;2023-05-10T01:26:14;12.90;99.90
35541;DHT22;21650;48.840;9.162;2023-05-10T01:29:11;12.90;99.90
35541;DHT22;21650;48.840;9.162;2023-05-10T01:37:31;12.90;99.90
35541;DHT22;21650;48.840;9.162;2023-05-10T01:40:07;13.00;99.90
35541;DHT22;21650;48.840;9.162;2023-05-10T01:42:42;13.00;99.90
35541;DHT22;21650;48.840;9.162;2023-05-10T01:45:24;13.00;99.90
35541;DHT22;21650;48.840;9.162;2023-05-10T01:48:09;13.00;99.90
35541;DHT22;21650;48.840;9.162;2023-05-10T01:50:37;12.90;99.90
35541;DHT22;21650;48.840;9.162;2023-05-10T01:53:06;12.90;99.90
35541;DHT22;21650;48.840;9.162;2023-05-10T01:55:35;12.90;99.90
35541;DHT22;21650;48.840;9.162;2023-05-10T01:58:13;12.90;99.90
35541;DHT22;21650;48.840;9.162;2023-05-10T02:00:46;12.90;99.90
35541;DHT22;21650;48.840;9.162;2023-05-10T02:03:12;13.00;99.90
35541;DHT22;21650;48.840;9.162;2023-05-10T02:05:41;13.00;99.90
35541;DHT22;21650;48.840;9.162;2023-05-10T02:08:09;13.00;99.90
35541;DHT22;21650;48.840;9.162;2023-05-10T02:10:36;12.90;99.90
35541;DHT22;21650;48.840;9.162;2023-05-10T02:13:02;12.90;99.90
35541;DHT22;21650;48.840;9.162;2023-05-10T02:15:29;12.90;99.90
35541;DHT22;21650;48.840;9.162;2023-05-10T02:17:55;12.90;99.90
35541;DHT22;21650;48.840;9.162;2023-05-10T02:20:23;12.80;99.90
35541;DHT22;21650;48.840;9.162;2023-05-10T02:22:51;12.90;99.90
35541;DHT22;21650;48.840;9.162;2023-05-10T02:25:19;12.80;99.90
35541;DHT22;21650;48.840;9.162;2023-05-10T02:27:46;12.80;99.90
35541;DHT22;21650;48.840;9.162;2023-05-10T02:30:13;12.80;99.90
35541;DHT22;21650;48.840;9.162;2023-05-10T02:32:39;12.80;99.90
35541;DHT22;21650;48.840;9.162;2023-05-10T02:35:05;12.80;99.90
35541;DHT22;21650;48.840;9.162;2023-05-10T02:37:33;12.90;99.90
35541;DHT22;21650;48.840;9.162;2023-05-10T02:40:00;12.90;99.90
35541;DHT22;21650;48.840;9.162;2023-05-10T02:42:29;12.90;99.90
35541;DHT22;21650;48.840;9.162;2023-05-10T02:45:00;12.90;99.90
35541;DHT22;21650;48.840;9.162;2023-05-10T02:47:26;12.90;99.90
35541;DHT22;21650;48.840;9.162;2023-05-10T02:49:52;13.00;99.90
35541;DHT22;21650;48.840;9.162;2023-05-10T02:52:23;13.00;99.90
35541;DHT22;21650;48.840;9.162;2023-05-10T02:54:50;13.10;99.90
35541;DHT22;21650;48.840;9.162;2023-05-10T02:57:24;13.10;99.90
35541;DHT22;21650;48.840;9.162;2023-05-10T02:59:51;13.10;99.90
35541;DHT22;21650;48.840;9.162;2023-05-10T03:02:17;13.00;99.90
35541;DHT22;21650;48.840;9.162;2023-05-10T03:04:42;13.00;99.90
35541;DHT22;21650;48.840;9.162;2023-05-10T03:07:08;13.00;99.90
35541;DHT22;21650;48.840;9.162;2023-05-10T03:09:34;13.00;99.90
35541;DHT22;21650;48.840;9.162;2023-05-10T03:14:53;13.00;99.90
35541;DHT22;21650;48.840;9.162;2023-05-10T03:17:35;13.10;99.90
35541;DHT22;21650;48.840;9.162;2023-05-10T03:20:10;13.00;99.90
35541;DHT22;21650;48.840;9.162;2023-05-10T03:22:46;13.00;99.90
35541;DHT22;21650;48.840;9.162;2023-05-10T03:25:15;13.20;99.90
35541;DHT22;21650;48.840;9.162;2023-05-10T03:27:43;13.30;99.90
35541;DHT22;21650;48.840;9.162;2023-05-10T03:30:11;13.30;99.90
35541;DHT22;21650;48.840;9.162;2023-05-10T03:32:37;13.30;99.90
35541;DHT22;21650;48.840;9.162;2023-05-10T03:35:07;13.30;99.90
35541;DHT22;21650;48.840;9.162;2023-05-10T03:37:33;13.30;99.90
35541;DHT22;21650;48.840;9.162;2023-05-10T03:39:59;13.30;99.90
35541;DHT22;21650;48.840;9.162;2023-05-10T03:42:25;13.30;99.90
35541;DHT22;21650;48.840;9.162;2023-05-10T03:44:50;13.40;99.90
35541;DHT22;21650;48.840;9.162;2023-05-10T03:47:16;13.30;99.90
35541;DHT22;21650;48.840;9.162;2023-05-10T03:49:41;13.30;99.90
35541;DHT22;21650;48.840;9.162;2023-05-10T03:52:07;13.20;99.90
35541;DHT22;21650;48.840;9.162;2023-05-10T03:54:32;13.20;99.90
35541;DHT22;21650;48.840;9.162;2023-05-10T03:56:58;13.10;99.90
35541;DHT22;21650;48.840;9.162;2023-05-10T03:59:23;13.20;99.90
35541;DHT22;21650;48.840;9.162;2023-05-10T04:01:49;13.30;99.90
35541;DHT22;21650;48.840;9.162;2023-05-10T04:04:14;13.30;99.90
35541;DHT22;21650;48.840;9.162;2023-05-10T04:06:40;13.30;99.90
35541;DHT22;21650;48.840;9.162;2023-05-10T04:09:05;13.40;99.90
35541;DHT22;21650;48.840;9.162;2023-05-10T04:11:31;13.40;99.90
35541;DHT22;21650;48.840;9.162;2023-05-10T04:13:56;13.30;99.90
35541;DHT22;21650;48.840;9.162;2023-05-10T04:16:22;13.20;99.90
35541;DHT22;21650;48.840;9.162;2023-05-10T04:18:47;13.20;99.90
35541;DHT22;21650;48.840;9.162;2023-05-10T04:21:14;13.40;99.90
35541;DHT22;21650;48.840;9.162;2023-05-10T04:23:40;13.40;99.90
35541;DHT22;21650;48.840;9.162;2023-05-10T04:26:06;13.40;99.90
35541;DHT22;21650;48.840;9.162;2023-05-10T04:28:32;13.50;99.90
35541;DHT22;21650;48.840;9.162;2023-05-10T04:31:03;13.50;99.90
35541;DHT22;21650;48.840;9.162;2023-05-10T04:33:29;13.50;99.90
35541;DHT22;21650;48.840;9.162;2023-05-10T04:35:55;13.50;99.90
35541;DHT22;21650;48.840;9.162;2023-05-10T04:38:20;13.50;99.90
35541;DHT22;21650;48.840;9.162;2023-05-10T04:40:46;13.60;99.90
35541;DHT22;21650;48.840;9.162;2023-05-10T04:43:11;13.50;99.90
35541;DHT22;21650;48.840;9.162;2023-05-10T04:45:37;13.40;99.90
35541;DHT22;21650;48.840;9.162;2023-05-10T04:48:02;13.40;99.90
35541;DHT22;21650;48.840;9.162;2023-05-10T04:50:28;13.40;99.90
35541;DHT22;21650;48.840;9.162;2023-05-10T04:52:53;13.50;99.90
35541;DHT22;21650;48.840;9.162;2023-05-10T04:55:19;13.40;99.90
35541;DHT22;21650;48.840;9.162;2023-05-10T04:57:44;13.40;99.90
35541;DHT22;21650;48.840;9.162;2023-05-10T05:00:10;13.40;99.90
35541;DHT22;21650;48.840;9.162;2023-05-10T05:02:36;13.40;99.90
35541;DHT22;21650;48.840;9.162;2023-05-10T05:05:02;13.40;99.90
35541;DHT22;21650;48.840;9.162;2023-05-10T05:07:27;13.40;99.90
35541;DHT22;21650;48.840;9.162;2023-05-10T05:09:53;13.50;99.90
35541;DHT22;21650;48.840;9.162;2023-05-10T05:12:18;13.50;99.90
35541;DHT22;21650;48.840;9.162;2023-05-10T05:14:44;13.40;99.90
35541;DHT22;21650;48.840;9.162;2023-05-10T05:17:10;13.50;99.90
35541;DHT22;21650;48.840;9.162;2023-05-10T05:19:35;13.50;99.90
35541;DHT22;21650;48.840;9.162;2023-05-10T05:22:01;13.60;99.90
35541;DHT22;21650;48.840;9.162;2023-05-10T05:24:27;13.50;99.90
35541;DHT22;21650;48.840;9.162;2023-05-10T05:26:52;13.60;99.90
35541;DHT22;21650;48.840;9.162;2023-05-10T05:29:18;13.60;99.90
35541;DHT22;21650;48.840;9.162;2023-05-10T05:31:43;13.70;99.90
35541;DHT22;21650;48.840;9.162;2023-05-10T05:34:09;13.60;99.90
35541;DHT22;21650;48.840;9.162;2023-05-10T05:36:36;13.70;99.90
35541;DHT22;21650;48.840;9.162;2023-05-10T05:39:03;13.80;99.90
35541;DHT22;21650;48.840;9.162;2023-05-10T05:41:29;13.70;99.90
35541;DHT22;21650;48.840;9.162;2023-05-10T05:43:54;13.70;99.90
35541;DHT22;21650;48.840;9.162;2023-05-10T05:46:20;13.60;99.90
35541;DHT22;21650;48.840;9.162;2023-05-10T05:48:45;13.60;99.90
35541;DHT22;21650;48.840;9.162;2023-05-10T05:51:11;13.70;99.90
35541;DHT22;21650;48.840;9.162;2023-05-10T05:53:36;13.70;99.90
35541;DHT22;21650;48.840;9.162;2023-05-10T05:56:02;13.80;99.90
35541;DHT22;21650;48.840;9.162;2023-05-10T05:58:28;13.90;99.90
35541;DHT22;21650;48.840;9.162;2023-05-10T06:00:54;13.90;99.90
35541;DHT22;21650;48.840;9.162;2023-05-10T06:03:20;13.80;99.90
35541;DHT22;21650;48.840;9.162;2023-05-10T06:05:45;13.90;99.90
35541;DHT22;21650;48.840;9.162;2023-05-10T06:08:11;13.90;99.90
35541;DHT22;21650;48.840;9.162;2023-05-10T06:10:37;14.00;99.90
35541;DHT22;21650;48.840;9.162;2023-05-10T06:13:02;14.00;99.90
35541;DHT22;21650;48.840;9.162;2023-05-10T06:15:28;14.00;99.90
35541;DHT22;21650;48.840;9.162;2023-05-10T06:17:53;14.00;99.90
35541;DHT22;21650;48.840;9.162;2023-05-10T06:20:19;14.10;99.90
35541;DHT22;21650;48.840;9.162;2023-05-10T06:22:44;14.20;99.90
35541;DHT22;21650;48.840;9.162;2023-05-10T06:25:10;14.30;99.90
35541;DHT22;21650;48.840;9.162;2023-05-10T06:27:36;14.10;99.90
35541;DHT22;21650;48.840;9.162;2023-05-10T06:30:02;14.10;99.90
35541;DHT22;21650;48.840;9.162;2023-05-10T06:32:28;14.30;99.90
35541;DHT22;21650;48.840;9.162;2023-05-10T06:34:54;14.50;99.90
35541;DHT22;21650;48.840;9.162;2023-05-10T06:37:19;14.50;99.90
35541;DHT22;21650;48.840;9.162;2023-05-10T06:39:45;14.60;99.90
35541;DHT22;21650;48.840;9.162;2023-05-10T06:42:10;14.70;99.90
35541;DHT22;21650;48.840;9.162;2023-05-10T06:44:36;14.70;99.90
35541;DHT22;21650;48.840;9.162;2023-05-10T06:47:01;14.70;99.90
35541;DHT22;21650;48.840;9.162;2023-05-10T06:49:27;14.60;99.90
35541;DHT22;21650;48.840;9.162;2023-05-10T06:51:52;14.70;99.90
35541;DHT22;21650;48.840;9.162;2023-05-10T06:54:18;14.90;99.90
35541;DHT22;21650;48.840;9.162;2023-05-10T06:56:44;15.00;99.90
35541;DHT22;21650;48.840;9.162;2023-05-10T06:59:10;15.00;99.90
35541;DHT22;21650;48.840;9.162;2023-05-10T07:01:35;15.10;99.90
35541;DHT22;21650;48.840;9.162;2023-05-10T07:04:01;15.20;99.90
35541;DHT22;21650;48.840;9.162;2023-05-10T07:06:26;15.20;99.90
35541;DHT22;21650;48.840;9.162;2023-05-10T07:08:52;15.20;99.90
35541;DHT22;21650;48.840;9.162;2023-05-10T07:11:18;15.20;99.90
35541;DHT22;21650;48.840;9.162;2023-05-10T07:13:43;15.20;99.90
35541;DHT22;21650;48.840;9.162;2023-05-10T07:16:11;15.20;99.90
35541;DHT22;21650;48.840;9.162;2023-05-10T07:18:36;15.30;99.90
35541;DHT22;21650;48.840;9.162;2023-05-10T07:21:02;15.30;99.90
35541;DHT22;21650;48.840;9.162;2023-05-10T07:23:28;15.50;99.90
35541;DHT22;21650;48.840;9.162;2023-05-10T07:25:54;15.50;99.90
35541;DHT22;21650;48.840;9.162;2023-05-10T07:28:20;15.50;99.90
35541;DHT22;21650;48.840;9.162;2023-05-10T07:30:46;15.50;99.90
35541;DHT22;21650;48.840;9.162;2023-05-10T07:33:12;15.50;99.90
35541;DHT22;21650;48.840;9.162;2023-05-10T07:35:38;15.40;99.90
35541;DHT22;21650;48.840;9.162;2023-05-10T07:38:04;15.60;99.90
35541;DHT22;21650;48.840;9.162;2023-05-10T07:40:30;15.50;99.90
35541;DHT22;21650;48.840;9.162;2023-05-10T07:42:56;15.60;99.90
35541;DHT22;21650;48.840;9.162;2023-05-10T07:45:22;15.60;99.90
35541;DHT22;21650;48.840;9.162;2023-05-10T07:47:48;15.50;99.90
35541;DHT22;21650;48.840;9.162;2023-05-10T07:50:14;15.50;99.90
35541;DHT22;21650;48.840;9.162;2023-05-10T07:52:39;15.50;99.90
35541;DHT22;21650;48.840;9.162;2023-05-10T07:55:05;15.50;99.90
35541;DHT22;21650;48.840;9.162;2023-05-10T07:57:35;15.60;99.90
35541;DHT22;21650;48.840;9.162;2023-05-10T08:00:02;15.60;99.90
35541;DHT22;21650;48.840;9.162;2023-05-10T08:02:27;15.60;99.90
35541;DHT22;21650;48.840;9.162;2023-05-10T08:04:53;15.70;99.90
35541;DHT22;21650;48.840;9.162;2023-05-10T08:07:19;15.80;99.90
35541;DHT22;21650;48.840;9.162;2023-05-10T08:09:44;15.70;99.90
35541;DHT22;21650;48.840;9.162;2023-05-10T08:12:10;15.40;99.90
35541;DHT22;21650;48.840;9.162;2023-05-10T08:14:35;15.40;99.90
35541;DHT22;21650;48.840;9.162;2023-05-10T08:17:02;15.50;99.90
35541;DHT22;21650;48.840;9.162;2023-05-10T08:19:28;15.50;99.90
35541;DHT22;21650;48.840;9.162;2023-05-10T08:21:54;15.40;99.90
35541;DHT22;21650;48.840;9.162;2023-05-10T08:24:21;15.40;99.90
35541;DHT22;21650;48.840;9.162;2023-05-10T08:26:47;15.50;99.90
35541;DHT22;21650;48.840;9.162;2023-05-10T08:29:13;15.50;99.90
35541;DHT22;21650;48.840;9.162;2023-05-10T08:31:38;15.50;99.90
35541;DHT22;21650;48.840;9.162;2023-05-10T08:34:04;15.50;99.90
35541;DHT22;21650;48.840;9.162;2023-05-10T08:36:30;15.30;99.90
35541;DHT22;21650;48.840;9.162;2023-05-10T08:38:56;15.30;99.90
35541;DHT22;21650;48.840;9.162;2023-05-10T08:41:22;15.20;99.90
35541;DHT22;21650;48.840;9.162;2023-05-10T08:43:50;15.10;99.90
35541;DHT22;21650;48.840;9.162;2023-05-10T08:46:17;15.20;99.90
35541;DHT22;21650;48.840;9.162;2023-05-10T08:48:44;15.50;99.90
35541;DHT22;21650;48.840;9.162;2023-05-10T08:51:13;15.50;99.90
35541;DHT22;21650;48.840;9.162;2023-05-10T08:53:39;15.70;99.90
35541;DHT22;21650;48.840;9.162;2023-05-10T08:56:05;15.70;99.90
35541;DHT22;21650;48.840;9.162;2023-05-10T08:58:31;15.70;99.90
35541;DHT22;21650;48.840;9.162;2023-05-10T09:00:57;16.00;99.90
35541;DHT22;21650;48.840;9.162;2023-05-10T09:03:23;15.90;99.90
35541;DHT22;21650;48.840;9.162;2023-05-10T09:05:49;16.00;99.90
35541;DHT22;21650;48.840;9.162;2023-05-10T09:08:15;15.80;99.90
35541;DHT22;21650;48.840;9.162;2023-05-10T09:10:44;15.90;99.90
35541;DHT22;21650;48.840;9.162;2023-05-10T09:13:13;15.70;99.90
35541;DHT22;21650;48.840;9.162;2023-05-10T09:15:40;16.00;99.90
35541;DHT22;21650;48.840;9.162;2023-05-10T09:18:05;16.20;99.90
35541;DHT22;21650;48.840;9.162;2023-05-10T09:20:31;16.00;99.90
35541;DHT22;21650;48.840;9.162;2023-05-10T09:22:56;16.10;99.90
35541;DHT22;21650;48.840;9.162;2023-05-10T09:25:22;16.10;99.90
35541;DHT22;21650;48.840;9.162;2023-05-10T09:27:48;16.20;99.90
35541;DHT22;21650;48.840;9.162;2023-05-10T09:30:23;16.20;99.90
35541;DHT22;21650;48.840;9.162;2023-05-10T09:32:49;16.30;99.90
35541;DHT22;21650;48.840;9.162;2023-05-10T09:35:20;16.10;99.90
35541;DHT22;21650;48.840;9.162;2023-05-10T09:37:49;16.20;99.90
35541;DHT22;21650;48.840;9.162;2023-05-10T09:40:17;16.40;99.90
35541;DHT22;21650;48.840;9.162;2023-05-10T09:42:51;16.50;99.90
35541;DHT22;21650;48.840;9.162;2023-05-10T09:45:17;16.40;99.90
35541;DHT22;21650;48.840;9.162;2023-05-10T09:47:43;16.40;99.90
35541;DHT22;21650;48.840;9.162;2023-05-10T09:50:09;16.20;99.90
35541;DHT22;21650;48.840;9.162;2023-05-10T09:52:55;16.10;99.90
35541;DHT22;21650;48.840;9.162;2023-05-10T09:55:25;16.00;99.90
35541;DHT22;21650;48.840;9.162;2023-05-10T09:58:01;16.10;99.90
35541;DHT22;21650;48.840;9.162;2023-05-10T10:00:28;16.00;99.90
35541;DHT22;21650;48.840;9.162;2023-05-10T10:02:58;15.70;99.90
35541;DHT22;21650;48.840;9.162;2023-05-10T10:05:31;15.80;99.90
35541;DHT22;21650;48.840;9.162;2023-05-10T10:07:58;15.90;99.90
35541;DHT22;21650;48.840;9.162;2023-05-10T10:10:25;15.80;99.90
35541;DHT22;21650;48.840;9.162;2023-05-10T10:12:51;15.70;99.90
35541;DHT22;21650;48.840;9.162;2023-05-10T10:15:17;15.50;99.90
35541;DHT22;21650;48.840;9.162;2023-05-10T10:17:43;15.70;99.90
35541;DHT22;21650;48.840;9.162;2023-05-10T10:20:09;15.60;99.90
35541;DHT22;21650;48.840;9.162;2023-05-10T10:22:36;15.60;99.90
35541;DHT22;21650;48.840;9.162;2023-05-10T10:25:02;15.70;99.90
35541;DHT22;21650;48.840;9.162;2023-05-10T10:30:41;16.10;99.90
35541;DHT22;21650;48.840;9.162;2023-05-10T10:35:53;16.00;99.90
35541;DHT22;21650;48.840;9.162;2023-05-10T10:38:20;15.90;99.90
35541;DHT22;21650;48.840;9.162;2023-05-10T10:40:47;16.00;99.90
35541;DHT22;21650;48.840;9.162;2023-05-10T10:43:27;16.10;99.90
35541;DHT22;21650;48.840;9.162;2023-05-10T10:46:15;16.10;99.90
35541;DHT22;21650;48.840;9.162;2023-05-10T10:48:48;16.10;99.90
35541;DHT22;21650;48.840;9.162;2023-05-10T10:51:14;16.70;99.90
35541;DHT22;21650;48.840;9.162;2023-05-10T10:53:41;17.00;99.90
35541;DHT22;21650;48.840;9.162;2023-05-10T10:56:11;16.70;99.90
35541;DHT22;21650;48.840;9.162;2023-05-10T10:58:39;16.60;99.90
35541;DHT22;21650;48.840;9.162;2023-05-10T11:01:12;16.70;99.90
35541;DHT22;21650;48.840;9.162;2023-05-10T11:03:38;17.00;99.90
35541;DHT22;21650;48.840;9.162;2023-05-10T11:06:04;16.70;99.90
35541;DHT22;21650;48.840;9.162;2023-05-10T11:08:31;16.80;99.90
35541;DHT22;21650;48.840;9.162;2023-05-10T11:13:34;16.40;99.90
35541;DHT22;21650;48.840;9.162;2023-05-10T11:16:15;16.50;99.90
35541;DHT22;21650;48.840;9.162;2023-05-10T11:18:40;16.70;99.90
35541;DHT22;21650;48.840;9.162;2023-05-10T11:21:09;16.90;99.90
35541;DHT22;21650;48.840;9.162;2023-05-10T11:23:50;16.70;99.90
35541;DHT22;21650;48.840;9.162;2023-05-10T11:26:17;16.60;99.90
35541;DHT22;21650;48.840;9.162;2023-05-10T11:28:48;16.70;99.90
35541;DHT22;21650;48.840;9.162;2023-05-10T11:31:17;16.50;99.90
35541;DHT22;21650;48.840;9.162;2023-05-10T11:33:47;16.70;99.90
35541;DHT22;21650;48.840;9.162;2023-05-10T11:36:39;16.50;99.90
35541;DHT22;21650;48.840;9.162;2023-05-10T11:39:05;16.70;99.90
35541;DHT22;21650;48.840;9.162;2023-05-10T11:41:31;16.50;99.90
35541;DHT22;21650;48.840;9.162;2023-05-10T11:43:57;17.00;99.90
35541;DHT22;21650;48.840;9.162;2023-05-10T11:46:25;17.30;99.90
35541;DHT22;21650;48.840;9.162;2023-05-10T11:48:53;17.50;99.90
35541;DHT22;21650;48.840;9.162;2023-05-10T11:51:23;17.60;99.90
35541;DHT22;21650;48.840;9.162;2023-05-10T11:53:55;16.90;99.90
35541;DHT22;21650;48.840;9.162;2023-05-10T11:56:21;16.60;99.90
35541;DHT22;21650;48.840;9.162;2023-05-10T11:58:56;16.20;99.90
35541;DHT22;21650;48.840;9.162;2023-05-10T12:01:23;16.30;99.90
35541;DHT22;21650;48.840;9.162;2023-05-10T12:03:53;16.50;99.90
35541;DHT22;21650;48.840;9.162;2023-05-10T12:06:20;16.70;99.90
35541;DHT22;21650;48.840;9.162;2023-05-10T12:08:47;16.50;99.90
35541;DHT22;21650;48.840;9.162;2023-05-10T12:11:14;16.20;99.90
35541;DHT22;21650;48.840;9.162;2023-05-10T12:13:42;16.30;99.90
35541;DHT22;21650;48.840;9.162;2023-05-10T12:16:17;16.40;99.90
35541;DHT22;21650;48.840;9.162;2023-05-10T12:18:43;16.20;99.90
35541;DHT22;21650;48.840;9.162;2023-05-10T12:21:12;16.10;99.90
35541;DHT22;21650;48.840;9.162;2023-05-10T12:23:38;16.20;99.90
35541;DHT22;21650;48.840;9.162;2023-05-10T12:26:05;16.30;99.90
35541;DHT22;21650;48.840;9.162;2023-05-10T12:28:32;16.30;99.90
35541;DHT22;21650;48.840;9.162;2023-05-10T12:30:59;16.40;99.90
35541;DHT22;21650;48.840;9.162;2023-05-10T12:33:25;16.40;99.90
35541;DHT22;21650;48.840;9.162;2023-05-10T12:35:52;16.70;99.90
35541;DHT22;21650;48.840;9.162;2023-05-10T12:38:35;16.90;99.90
35541;DHT22;21650;48.840;9.162;2023-05-10T12:41:05;16.90;99.90
35541;DHT22;21650;48.840;9.162;2023-05-10T12:43:32;16.60;99.90
35541;DHT22;21650;48.840;9.162;2023-05-10T12:45:58;16.90;99.90
35541;DHT22;21650;48.840;9.162;2023-05-10T12:48:24;16.90;99.90
35541;DHT22;21650;48.840;9.162;2023-05-10T12:50:49;16.80;99.90
35541;DHT22;21650;48.840;9.162;2023-05-10T12:53:15;17.00;99.90
35541;DHT22;21650;48.840;9.162;2023-05-10T12:55:42;17.00;99.90
35541;DHT22;21650;48.840;9.162;2023-05-10T12:58:08;17.00;99.90
35541;DHT22;21650;48.840;9.162;2023-05-10T13:00:33;16.90;99.90
35541;DHT22;21650;48.840;9.162;2023-05-10T13:02:59;16.80;99.90
35541;DHT22;21650;48.840;9.162;2023-05-10T13:05:24;16.60;99.90
35541;DHT22;21650;48.840;9.162;2023-05-10T13:07:50;16.80;99.90
35541;DHT22;21650;48.840;9.162;2023-05-10T13:10:16;17.20;99.90
35541;DHT22;21650;48.840;9.162;2023-05-10T13:12:42;17.10;99.90
35541;DHT22;21650;48.840;9.162;2023-05-10T13:15:07;17.00;99.90
35541;DHT22;21650;48.840;9.162;2023-05-10T13:17:33;17.20;99.90
35541;DHT22;21650;48.840;9.162;2023-05-10T13:19:59;16.80;99.90
35541;DHT22;21650;48.840;9.162;2023-05-10T13:22:25;16.70;99.90
35541;DHT22;21650;48.840;9.162;2023-05-10T13:24:50;17.00;99.90
35541;DHT22;21650;48.840;9.162;2023-05-10T13:27:16;16.90;99.90
35541;DHT22;21650;48.840;9.162;2023-05-10T13:29:41;17.00;99.90
35541;DHT22;21650;48.840;9.162;2023-05-10T13:32:07;16.80;99.90
35541;DHT22;21650;48.840;9.162;2023-05-10T13:34:32;16.90;99.90
35541;DHT22;21650;48.840;9.162;2023-05-10T13:36:58;16.90;99.90
35541;DHT22;21650;48.840;9.162;2023-05-10T13:39:23;17.00;99.90
35541;DHT22;21650;48.840;9.162;2023-05-10T13:41:49;17.00;99.90
35541;DHT22;21650;48.840;9.162;2023-05-10T13:44:15;16.80;99.90
35541;DHT22;21650;48.840;9.162;2023-05-10T13:46:41;16.70;99.90
35541;DHT22;21650;48.840;9.162;2023-05-10T13:49:09;16.90;99.90
35541;DHT22;21650;48.840;9.162;2023-05-10T13:51:35;17.10;99.90
35541;DHT22;21650;48.840;9.162;2023-05-10T13:54:01;17.10;99.90
35541;DHT22;21650;48.840;9.162;2023-05-10T13:56:27;17.30;99.90
35541;DHT22;21650;48.840;9.162;2023-05-10T13:58:52;17.10;99.90
35541;DHT22;21650;48.840;9.162;2023-05-10T14:01:18;17.10;99.90
35541;DHT22;21650;48.840;9.162;2023-05-10T14:03:44;17.30;99.90
35541;DHT22;21650;48.840;9.162;2023-05-10T14:06:09;17.20;99.90
35541;DHT22;21650;48.840;9.162;2023-05-10T14:08:35;17.00;99.90
35541;DHT22;21650;48.840;9.162;2023-05-10T14:11:01;16.90;99.90
35541;DHT22;21650;48.840;9.162;2023-05-10T14:13:26;17.00;99.90
35541;DHT22;21650;48.840;9.162;2023-05-10T14:15:53;17.10;99.90
35541;DHT22;21650;48.840;9.162;2023-05-10T14:18:19;16.80;99.90
35541;DHT22;21650;48.840;9.162;2023-05-10T14:20:44;16.90;99.90
35541;DHT22;21650;48.840;9.162;2023-05-10T14:23:10;16.70;99.90
35541;DHT22;21650;48.840;9.162;2023-05-10T14:25:35;16.60;99.90
35541;DHT22;21650;48.840;9.162;2023-05-10T14:28:01;16.70;99.90
35541;DHT22;21650;48.840;9.162;2023-05-10T14:30:26;16.60;99.90
35541;DHT22;21650;48.840;9.162;2023-05-10T14:32:52;16.80;99.90
35541;DHT22;21650;48.840;9.162;2023-05-10T14:35:19;17.10;99.90
35541;DHT22;21650;48.840;9.162;2023-05-10T14:37:44;17.20;99.90
35541;DHT22;21650;48.840;9.162;2023-05-10T14:40:10;17.30;99.90
35541;DHT22;21650;48.840;9.162;2023-05-10T14:42:37;17.40;99.90
35541;DHT22;21650;48.840;9.162;2023-05-10T14:45:03;17.40;99.90
35541;DHT22;21650;48.840;9.162;2023-05-10T14:47:29;17.40;99.90
35541;DHT22;21650;48.840;9.162;2023-05-10T14:49:54;17.30;99.90
35541;DHT22;21650;48.840;9.162;2023-05-10T14:52:20;17.30;99.90
35541;DHT22;21650;48.840;9.162;2023-05-10T14:54:45;17.40;99.90
35541;DHT22;21650;48.840;9.162;2023-05-10T14:57:11;17.20;99.90
35541;DHT22;21650;48.840;9.162;2023-05-10T14:59:37;17.10;99.90
35541;DHT22;21650;48.840;9.162;2023-05-10T15:02:02;17.00;99.90
35541;DHT22;21650;48.840;9.162;2023-05-10T15:04:29;16.80;99.90
35541;DHT22;21650;48.840;9.162;2023-05-10T15:06:55;17.00;99.90
35541;DHT22;21650;48.840;9.162;2023-05-10T15:09:24;17.20;99.90
35541;DHT22;21650;48.840;9.162;2023-05-10T15:11:50;17.40;99.90
35541;DHT22;21650;48.840;9.162;2023-05-10T15:14:15;17.50;99.90
35541;DHT22;21650;48.840;9.162;2023-05-10T15:16:41;17.60;99.90
35541;DHT22;21650;48.840;9.162;2023-05-10T15:19:06;17.50;99.90
35541;DHT22;21650;48.840;9.162;2023-05-10T15:21:32;17.10;99.90
35541;DHT22;21650;48.840;9.162;2023-05-10T15:24:04;17.10;99.90
35541;DHT22;21650;48.840;9.162;2023-05-10T15:26:30;17.10;99.90
35541;DHT22;21650;48.840;9.162;2023-05-10T15:28:56;17.10;99.90
35541;DHT22;21650;48.840;9.162;2023-05-10T15:31:21;17.10;99.90
35541;DHT22;21650;48.840;9.162;2023-05-10T15:33:47;17.00;99.90
35541;DHT22;21650;48.840;9.162;2023-05-10T15:36:12;17.00;99.90
35541;DHT22;21650;48.840;9.162;2023-05-10T15:38:38;16.90;99.90
35541;DHT22;21650;48.840;9.162;2023-05-10T15:41:03;16.90;99.90
35541;DHT22;21650;48.840;9.162;2023-05-10T15:43:29;17.00;99.90
35541;DHT22;21650;48.840;9.162;2023-05-10T15:45:54;17.00;99.90
35541;DHT22;21650;48.840;9.162;2023-05-10T15:48:20;17.00;99.90